sensor_id;sensor_type;location;lat;lon;timestamp;P1;durP1;ratioP1;P2;durP2;ratioP2
59974;SDS011;62136;-35.664;-63.766;2023-08-21T00:00:15;0.70;;;0.70;;
59974;SDS011;62136;-35.664;-63.766;2023-08-21T00:02:42;0.75;;;0.75;;
59974;SDS011;62136;-35.664;-63.766;2023-08-21T00:05:09;0.82;;;0.63;;
59974;SDS011;62136;-35.664;-63.766;2023-08-21T00:07:36;0.80;;;0.60;;
59974;SDS011;62136;-35.664;-63.766;2023-08-21T00:10:03;1.00;;;0.90;;
59974;SDS011;62136;-35.664;-63.766;2023-08-21T00:12:31;0.70;;;0.70;;
59974;SDS011;62136;-35.664;-63.766;2023-08-21T00:15:01;0.60;;;0.60;;
59974;SDS011;62136;-35.664;-63.766;2023-08-21T00:17:28;0.95;;;0.95;;
59974;SDS011;62136;-35.664;-63.766;2023-08-21T00:19:55;0.63;;;0.63;;
59974;SDS011;62136;-35.664;-63.766;2023-08-21T00:22:22;1.10;;;0.90;;
59974;SDS011;62136;-35.664;-63.766;2023-08-21T00:24:49;0.70;;;0.70;;
59974;SDS011;62136;-35.664;-63.766;2023-08-21T00:27:16;0.70;;;0.70;;
59974;SDS011;62136;-35.664;-63.766;2023-08-21T00:29:43;0.80;;;0.70;;
59974;SDS011;62136;-35.664;-63.766;2023-08-21T00:32:10;0.80;;;0.80;;
59974;SDS011;62136;-35.664;-63.766;2023-08-21T00:34:38;1.00;;;0.90;;
59974;SDS011;62136;-35.664;-63.766;2023-08-21T00:37:05;0.98;;;0.88;;
59974;SDS011;62136;-35.664;-63.766;2023-08-21T00:39:31;1.08;;;0.70;;
59974;SDS011;62136;-35.664;-63.766;2023-08-21T00:41:58;0.77;;;0.77;;
59974;SDS011;62136;-35.664;-63.766;2023-08-21T00:44:25;1.00;;;0.90;;
59974;SDS011;62136;-35.664;-63.766;2023-08-21T00:46:52;1.23;;;0.70;;
59974;SDS011;62136;-35.664;-63.766;2023-08-21T00:49:20;0.70;;;0.70;;
59974;SDS011;62136;-35.664;-63.766;2023-08-21T00:51:48;0.60;;;0.60;;
59974;SDS011;62136;-35.664;-63.766;2023-08-21T00:54:16;0.90;;;0.90;;
59974;SDS011;62136;-35.664;-63.766;2023-08-21T00:56:43;1.30;;;1.02;;
59974;SDS011;62136;-35.664;-63.766;2023-08-21T00:59:10;0.80;;;0.80;;
59974;SDS011;62136;-35.664;-63.766;2023-08-21T01:01:38;1.13;;;0.90;;
59974;SDS011;62136;-35.664;-63.766;2023-08-21T01:04:06;1.27;;;1.00;;
59974;SDS011;62136;-35.664;-63.766;2023-08-21T01:06:34;1.13;;;0.90;;
59974;SDS011;62136;-35.664;-63.766;2023-08-21T01:14:28;1.15;;;0.85;;
59974;SDS011;62136;-35.664;-63.766;2023-08-21T01:17:02;1.10;;;0.70;;
59974;SDS011;62136;-35.664;-63.766;2023-08-21T01:19:41;0.95;;;0.77;;
59974;SDS011;62136;-35.664;-63.766;2023-08-21T01:22:12;0.85;;;0.80;;
59974;SDS011;62136;-35.664;-63.766;2023-08-21T01:24:40;1.00;;;0.90;;
59974;SDS011;62136;-35.664;-63.766;2023-08-21T01:27:07;0.82;;;0.82;;
59974;SDS011;62136;-35.664;-63.766;2023-08-21T01:29:36;1.15;;;1.05;;
59974;SDS011;62136;-35.664;-63.766;2023-08-21T01:34:37;1.10;;;1.00;;
59974;SDS011;62136;-35.664;-63.766;2023-08-21T01:37:05;1.23;;;1.05;;
59974;SDS011;62136;-35.664;-63.766;2023-08-21T01:39:34;1.33;;;1.08;;
59974;SDS011;62136;-35.664;-63.766;2023-08-21T01:42:01;1.15;;;0.98;;
59974;SDS011;62136;-35.664;-63.766;2023-08-21T01:44:28;1.13;;;0.90;;
59974;SDS011;62136;-35.664;-63.766;2023-08-21T01:46:57;1.42;;;1.33;;
59974;SDS011;62136;-35.664;-63.766;2023-08-21T01:49:24;1.15;;;0.93;;
59974;SDS011;62136;-35.664;-63.766;2023-08-21T01:51:51;1.65;;;1.00;;
59974;SDS011;62136;-35.664;-63.766;2023-08-21T01:54:18;1.10;;;0.90;;
59974;SDS011;62136;-35.664;-63.766;2023-08-21T01:56:45;1.10;;;1.00;;
59974;SDS011;62136;-35.664;-63.766;2023-08-21T01:59:12;1.20;;;1.10;;
59974;SDS011;62136;-35.664;-63.766;2023-08-21T02:01:39;1.08;;;0.98;;
59974;SDS011;62136;-35.664;-63.766;2023-08-21T02:04:06;1.80;;;1.08;;
59974;SDS011;62136;-35.664;-63.766;2023-08-21T02:06:33;1.30;;;1.00;;
59974;SDS011;62136;-35.664;-63.766;2023-08-21T02:09:03;1.00;;;0.82;;
59974;SDS011;62136;-35.664;-63.766;2023-08-21T02:11:30;1.85;;;1.17;;
59974;SDS011;62136;-35.664;-63.766;2023-08-21T02:13:57;1.35;;;1.10;;
59974;SDS011;62136;-35.664;-63.766;2023-08-21T02:16:24;1.35;;;1.10;;
59974;SDS011;62136;-35.664;-63.766;2023-08-21T02:18:51;1.23;;;1.10;;
59974;SDS011;62136;-35.664;-63.766;2023-08-21T02:21:18;2.15;;;1.00;;
59974;SDS011;62136;-35.664;-63.766;2023-08-21T02:23:46;1.15;;;1.05;;
59974;SDS011;62136;-35.664;-63.766;2023-08-21T02:26:13;1.10;;;0.98;;
59974;SDS011;62136;-35.664;-63.766;2023-08-21T02:28:40;1.10;;;0.98;;
59974;SDS011;62136;-35.664;-63.766;2023-08-21T02:31:09;1.30;;;1.00;;
59974;SDS011;62136;-35.664;-63.766;2023-08-21T02:33:36;0.90;;;0.82;;
59974;SDS011;62136;-35.664;-63.766;2023-08-21T02:36:04;1.20;;;1.10;;
59974;SDS011;62136;-35.664;-63.766;2023-08-21T02:38:32;1.40;;;1.30;;
59974;SDS011;62136;-35.664;-63.766;2023-08-21T02:40:59;1.80;;;1.25;;
59974;SDS011;62136;-35.664;-63.766;2023-08-21T02:43:26;1.38;;;1.00;;
59974;SDS011;62136;-35.664;-63.766;2023-08-21T02:45:53;1.55;;;1.00;;
59974;SDS011;62136;-35.664;-63.766;2023-08-21T02:48:20;1.20;;;0.95;;
59974;SDS011;62136;-35.664;-63.766;2023-08-21T02:50:48;1.02;;;0.95;;
59974;SDS011;62136;-35.664;-63.766;2023-08-21T02:53:15;1.05;;;0.80;;
59974;SDS011;62136;-35.664;-63.766;2023-08-21T02:55:42;1.13;;;1.00;;
59974;SDS011;62136;-35.664;-63.766;2023-08-21T02:58:09;1.40;;;1.02;;
59974;SDS011;62136;-35.664;-63.766;2023-08-21T03:00:36;1.20;;;1.10;;
59974;SDS011;62136;-35.664;-63.766;2023-08-21T03:03:04;1.10;;;1.00;;
59974;SDS011;62136;-35.664;-63.766;2023-08-21T03:05:31;1.42;;;1.05;;
59974;SDS011;62136;-35.664;-63.766;2023-08-21T03:07:58;0.93;;;0.90;;
59974;SDS011;62136;-35.664;-63.766;2023-08-21T03:10:24;1.00;;;0.90;;
59974;SDS011;62136;-35.664;-63.766;2023-08-21T03:12:54;1.20;;;1.10;;
59974;SDS011;62136;-35.664;-63.766;2023-08-21T03:15:21;0.90;;;0.90;;
59974;SDS011;62136;-35.664;-63.766;2023-08-21T03:17:48;1.17;;;1.00;;
59974;SDS011;62136;-35.664;-63.766;2023-08-21T03:20:15;1.48;;;1.10;;
59974;SDS011;62136;-35.664;-63.766;2023-08-21T03:22:45;1.00;;;0.90;;
59974;SDS011;62136;-35.664;-63.766;2023-08-21T03:25:12;1.15;;;0.90;;
59974;SDS011;62136;-35.664;-63.766;2023-08-21T03:27:39;1.35;;;1.20;;
59974;SDS011;62136;-35.664;-63.766;2023-08-21T03:30:09;1.00;;;0.90;;
59974;SDS011;62136;-35.664;-63.766;2023-08-21T03:32:40;1.38;;;1.00;;
59974;SDS011;62136;-35.664;-63.766;2023-08-21T03:35:10;0.90;;;0.90;;
59974;SDS011;62136;-35.664;-63.766;2023-08-21T03:37:37;1.10;;;0.82;;
59974;SDS011;62136;-35.664;-63.766;2023-08-21T03:40:04;1.00;;;0.85;;
59974;SDS011;62136;-35.664;-63.766;2023-08-21T03:42:32;1.20;;;1.00;;
59974;SDS011;62136;-35.664;-63.766;2023-08-21T03:44:59;2.00;;;1.00;;
59974;SDS011;62136;-35.664;-63.766;2023-08-21T03:47:29;1.92;;;1.25;;
59974;SDS011;62136;-35.664;-63.766;2023-08-21T03:49:56;0.90;;;0.90;;
59974;SDS011;62136;-35.664;-63.766;2023-08-21T03:52:23;1.05;;;0.90;;
59974;SDS011;62136;-35.664;-63.766;2023-08-21T03:54:50;0.88;;;0.88;;
59974;SDS011;62136;-35.664;-63.766;2023-08-21T03:57:17;1.55;;;0.90;;
59974;SDS011;62136;-35.664;-63.766;2023-08-21T03:59:44;1.52;;;1.00;;
59974;SDS011;62136;-35.664;-63.766;2023-08-21T04:02:11;0.85;;;0.85;;
59974;SDS011;62136;-35.664;-63.766;2023-08-21T04:04:38;0.82;;;0.80;;
59974;SDS011;62136;-35.664;-63.766;2023-08-21T04:07:05;0.75;;;0.75;;
59974;SDS011;62136;-35.664;-63.766;2023-08-21T04:09:32;1.10;;;1.00;;
59974;SDS011;62136;-35.664;-63.766;2023-08-21T04:11:59;1.58;;;0.93;;
59974;SDS011;62136;-35.664;-63.766;2023-08-21T04:14:26;1.13;;;0.90;;
59974;SDS011;62136;-35.664;-63.766;2023-08-21T04:16:56;1.00;;;0.90;;
59974;SDS011;62136;-35.664;-63.766;2023-08-21T04:19:23;0.80;;;0.80;;
59974;SDS011;62136;-35.664;-63.766;2023-08-21T04:21:50;0.82;;;0.80;;
59974;SDS011;62136;-35.664;-63.766;2023-08-21T04:24:17;1.02;;;0.90;;
59974;SDS011;62136;-35.664;-63.766;2023-08-21T04:26:44;1.20;;;1.10;;
59974;SDS011;62136;-35.664;-63.766;2023-08-21T04:29:11;0.88;;;0.88;;
59974;SDS011;62136;-35.664;-63.766;2023-08-21T04:31:38;1.00;;;1.00;;
59974;SDS011;62136;-35.664;-63.766;2023-08-21T04:34:05;1.13;;;1.00;;
59974;SDS011;62136;-35.664;-63.766;2023-08-21T04:36:32;0.85;;;0.85;;
59974;SDS011;62136;-35.664;-63.766;2023-08-21T04:38:59;0.88;;;0.88;;
59974;SDS011;62136;-35.664;-63.766;2023-08-21T04:41:26;1.42;;;0.80;;
59974;SDS011;62136;-35.664;-63.766;2023-08-21T04:43:53;1.85;;;1.00;;
59974;SDS011;62136;-35.664;-63.766;2023-08-21T04:46:20;1.02;;;0.93;;
59974;SDS011;62136;-35.664;-63.766;2023-08-21T04:48:47;1.00;;;0.93;;
59974;SDS011;62136;-35.664;-63.766;2023-08-21T04:51:14;0.93;;;0.88;;
59974;SDS011;62136;-35.664;-63.766;2023-08-21T04:53:41;1.52;;;0.90;;
59974;SDS011;62136;-35.664;-63.766;2023-08-21T04:56:08;1.63;;;1.30;;
59974;SDS011;62136;-35.664;-63.766;2023-08-21T04:58:35;0.93;;;0.85;;
59974;SDS011;62136;-35.664;-63.766;2023-08-21T05:01:04;1.00;;;0.82;;
59974;SDS011;62136;-35.664;-63.766;2023-08-21T05:03:31;0.98;;;0.98;;
59974;SDS011;62136;-35.664;-63.766;2023-08-21T05:05:58;1.92;;;1.02;;
59974;SDS011;62136;-35.664;-63.766;2023-08-21T05:08:25;1.10;;;1.00;;
59974;SDS011;62136;-35.664;-63.766;2023-08-21T05:10:56;1.35;;;0.65;;
59974;SDS011;62136;-35.664;-63.766;2023-08-21T05:13:26;0.90;;;0.90;;
59974;SDS011;62136;-35.664;-63.766;2023-08-21T05:15:54;0.60;;;0.60;;
59974;SDS011;62136;-35.664;-63.766;2023-08-21T05:18:22;0.85;;;0.85;;
59974;SDS011;62136;-35.664;-63.766;2023-08-21T05:20:52;1.15;;;1.00;;
59974;SDS011;62136;-35.664;-63.766;2023-08-21T05:23:19;0.95;;;0.85;;
59974;SDS011;62136;-35.664;-63.766;2023-08-21T05:25:48;0.85;;;0.85;;
59974;SDS011;62136;-35.664;-63.766;2023-08-21T05:28:15;0.95;;;0.95;;
59974;SDS011;62136;-35.664;-63.766;2023-08-21T05:30:42;1.55;;;0.93;;
59974;SDS011;62136;-35.664;-63.766;2023-08-21T05:33:12;0.90;;;0.70;;
59974;SDS011;62136;-35.664;-63.766;2023-08-21T05:35:39;0.75;;;0.70;;
59974;SDS011;62136;-35.664;-63.766;2023-08-21T05:38:07;0.77;;;0.77;;
59974;SDS011;62136;-35.664;-63.766;2023-08-21T05:40:34;1.23;;;0.93;;
59974;SDS011;62136;-35.664;-63.766;2023-08-21T05:43:00;0.95;;;0.80;;
59974;SDS011;62136;-35.664;-63.766;2023-08-21T05:45:28;0.88;;;0.88;;
59974;SDS011;62136;-35.664;-63.766;2023-08-21T05:47:55;0.70;;;0.70;;
59974;SDS011;62136;-35.664;-63.766;2023-08-21T05:50:22;0.88;;;0.73;;
59974;SDS011;62136;-35.664;-63.766;2023-08-21T05:52:49;0.98;;;0.93;;
59974;SDS011;62136;-35.664;-63.766;2023-08-21T05:55:17;1.58;;;0.98;;
59974;SDS011;62136;-35.664;-63.766;2023-08-21T05:57:44;0.82;;;0.82;;
59974;SDS011;62136;-35.664;-63.766;2023-08-21T06:00:12;0.85;;;0.80;;
59974;SDS011;62136;-35.664;-63.766;2023-08-21T06:02:39;1.13;;;0.80;;
59974;SDS011;62136;-35.664;-63.766;2023-08-21T06:05:08;1.00;;;0.85;;
59974;SDS011;62136;-35.664;-63.766;2023-08-21T06:07:35;1.02;;;0.80;;
59974;SDS011;62136;-35.664;-63.766;2023-08-21T06:10:02;1.75;;;1.00;;
59974;SDS011;62136;-35.664;-63.766;2023-08-21T06:12:30;1.48;;;0.52;;
59974;SDS011;62136;-35.664;-63.766;2023-08-21T06:14:57;0.82;;;0.82;;
59974;SDS011;62136;-35.664;-63.766;2023-08-21T06:17:24;0.70;;;0.70;;
59974;SDS011;62136;-35.664;-63.766;2023-08-21T06:19:53;0.90;;;0.90;;
59974;SDS011;62136;-35.664;-63.766;2023-08-21T06:22:20;0.85;;;0.70;;
59974;SDS011;62136;-35.664;-63.766;2023-08-21T06:24:47;0.60;;;0.60;;
59974;SDS011;62136;-35.664;-63.766;2023-08-21T06:27:13;0.70;;;0.70;;
59974;SDS011;62136;-35.664;-63.766;2023-08-21T06:29:40;0.73;;;0.65;;
59974;SDS011;62136;-35.664;-63.766;2023-08-21T06:32:07;0.95;;;0.85;;
59974;SDS011;62136;-35.664;-63.766;2023-08-21T06:34:34;0.70;;;0.70;;
59974;SDS011;62136;-35.664;-63.766;2023-08-21T06:37:05;1.77;;;0.80;;
59974;SDS011;62136;-35.664;-63.766;2023-08-21T06:39:32;0.70;;;0.70;;
59974;SDS011;62136;-35.664;-63.766;2023-08-21T06:41:59;0.90;;;0.77;;
59974;SDS011;62136;-35.664;-63.766;2023-08-21T06:44:27;0.60;;;0.60;;
59974;SDS011;62136;-35.664;-63.766;2023-08-21T06:46:54;0.80;;;0.70;;
59974;SDS011;62136;-35.664;-63.766;2023-08-21T06:49:21;1.15;;;0.80;;
59974;SDS011;62136;-35.664;-63.766;2023-08-21T06:51:49;1.02;;;0.70;;
59974;SDS011;62136;-35.664;-63.766;2023-08-21T06:54:16;1.20;;;0.60;;
59974;SDS011;62136;-35.664;-63.766;2023-08-21T06:56:43;1.25;;;0.68;;
59974;SDS011;62136;-35.664;-63.766;2023-08-21T06:59:10;1.05;;;0.70;;
59974;SDS011;62136;-35.664;-63.766;2023-08-21T07:01:38;0.82;;;0.70;;
59974;SDS011;62136;-35.664;-63.766;2023-08-21T07:04:04;0.60;;;0.60;;
59974;SDS011;62136;-35.664;-63.766;2023-08-21T07:06:31;0.70;;;0.70;;
59974;SDS011;62136;-35.664;-63.766;2023-08-21T07:08:58;0.60;;;0.60;;
59974;SDS011;62136;-35.664;-63.766;2023-08-21T07:11:26;0.77;;;0.70;;
59974;SDS011;62136;-35.664;-63.766;2023-08-21T07:13:53;0.80;;;0.80;;
59974;SDS011;62136;-35.664;-63.766;2023-08-21T07:16:21;0.55;;;0.55;;
59974;SDS011;62136;-35.664;-63.766;2023-08-21T07:18:48;0.60;;;0.60;;
59974;SDS011;62136;-35.664;-63.766;2023-08-21T07:21:15;0.70;;;0.60;;
59974;SDS011;62136;-35.664;-63.766;2023-08-21T07:23:42;0.90;;;0.60;;
59974;SDS011;62136;-35.664;-63.766;2023-08-21T07:26:09;0.57;;;0.57;;
59974;SDS011;62136;-35.664;-63.766;2023-08-21T07:28:36;0.70;;;0.60;;
59974;SDS011;62136;-35.664;-63.766;2023-08-21T07:31:03;1.10;;;0.82;;
59974;SDS011;62136;-35.664;-63.766;2023-08-21T07:33:31;0.75;;;0.75;;
59974;SDS011;62136;-35.664;-63.766;2023-08-21T07:35:59;0.40;;;0.40;;
59974;SDS011;62136;-35.664;-63.766;2023-08-21T07:38:26;0.80;;;0.73;;
59974;SDS011;62136;-35.664;-63.766;2023-08-21T07:43:49;0.68;;;0.68;;
59974;SDS011;62136;-35.664;-63.766;2023-08-21T07:46:16;0.55;;;0.52;;
59974;SDS011;62136;-35.664;-63.766;2023-08-21T07:48:44;0.60;;;0.60;;
59974;SDS011;62136;-35.664;-63.766;2023-08-21T07:51:11;0.77;;;0.77;;
59974;SDS011;62136;-35.664;-63.766;2023-08-21T07:53:38;1.02;;;0.70;;
59974;SDS011;62136;-35.664;-63.766;2023-08-21T07:56:05;0.95;;;0.70;;
59974;SDS011;62136;-35.664;-63.766;2023-08-21T07:58:32;0.50;;;0.50;;
59974;SDS011;62136;-35.664;-63.766;2023-08-21T08:00:59;0.80;;;0.80;;
59974;SDS011;62136;-35.664;-63.766;2023-08-21T08:03:26;0.60;;;0.60;;
59974;SDS011;62136;-35.664;-63.766;2023-08-21T08:05:53;0.95;;;0.60;;
59974;SDS011;62136;-35.664;-63.766;2023-08-21T08:08:21;0.60;;;0.60;;
59974;SDS011;62136;-35.664;-63.766;2023-08-21T08:10:47;0.60;;;0.60;;
59974;SDS011;62136;-35.664;-63.766;2023-08-21T08:13:14;1.00;;;0.40;;
59974;SDS011;62136;-35.664;-63.766;2023-08-21T08:15:42;1.50;;;0.75;;
59974;SDS011;62136;-35.664;-63.766;2023-08-21T08:18:12;0.60;;;0.60;;
59974;SDS011;62136;-35.664;-63.766;2023-08-21T08:20:39;0.57;;;0.50;;
59974;SDS011;62136;-35.664;-63.766;2023-08-21T08:23:07;0.50;;;0.50;;
59974;SDS011;62136;-35.664;-63.766;2023-08-21T08:25:34;0.73;;;0.52;;
59974;SDS011;62136;-35.664;-63.766;2023-08-21T08:28:01;0.60;;;0.60;;
59974;SDS011;62136;-35.664;-63.766;2023-08-21T08:30:28;0.60;;;0.60;;
59974;SDS011;62136;-35.664;-63.766;2023-08-21T08:32:55;0.60;;;0.60;;
59974;SDS011;62136;-35.664;-63.766;2023-08-21T08:35:22;0.70;;;0.70;;
59974;SDS011;62136;-35.664;-63.766;2023-08-21T08:37:49;0.50;;;0.50;;
59974;SDS011;62136;-35.664;-63.766;2023-08-21T08:40:16;0.70;;;0.60;;
59974;SDS011;62136;-35.664;-63.766;2023-08-21T08:42:43;0.82;;;0.70;;
59974;SDS011;62136;-35.664;-63.766;2023-08-21T08:45:11;0.57;;;0.57;;
59974;SDS011;62136;-35.664;-63.766;2023-08-21T08:47:40;0.60;;;0.57;;
59974;SDS011;62136;-35.664;-63.766;2023-08-21T08:50:07;0.50;;;0.50;;
59974;SDS011;62136;-35.664;-63.766;2023-08-21T08:52:36;0.70;;;0.60;;
59974;SDS011;62136;-35.664;-63.766;2023-08-21T08:55:04;0.60;;;0.60;;
59974;SDS011;62136;-35.664;-63.766;2023-08-21T08:57:32;0.60;;;0.60;;
59974;SDS011;62136;-35.664;-63.766;2023-08-21T08:59:59;0.55;;;0.50;;
59974;SDS011;62136;-35.664;-63.766;2023-08-21T09:02:29;0.65;;;0.50;;
59974;SDS011;62136;-35.664;-63.766;2023-08-21T09:04:56;0.57;;;0.57;;
59974;SDS011;62136;-35.664;-63.766;2023-08-21T09:07:24;1.00;;;0.60;;
59974;SDS011;62136;-35.664;-63.766;2023-08-21T09:09:51;0.70;;;0.70;;
59974;SDS011;62136;-35.664;-63.766;2023-08-21T09:12:18;0.63;;;0.63;;
59974;SDS011;62136;-35.664;-63.766;2023-08-21T09:14:46;0.80;;;0.60;;
59974;SDS011;62136;-35.664;-63.766;2023-08-21T09:17:14;0.50;;;0.50;;
59974;SDS011;62136;-35.664;-63.766;2023-08-21T09:19:42;0.98;;;0.60;;
59974;SDS011;62136;-35.664;-63.766;2023-08-21T09:25:04;0.52;;;0.50;;
59974;SDS011;62136;-35.664;-63.766;2023-08-21T09:27:34;0.50;;;0.50;;
59974;SDS011;62136;-35.664;-63.766;2023-08-21T09:30:04;0.50;;;0.50;;
59974;SDS011;62136;-35.664;-63.766;2023-08-21T09:32:52;0.75;;;0.70;;
59974;SDS011;62136;-35.664;-63.766;2023-08-21T09:35:25;0.60;;;0.60;;
59974;SDS011;62136;-35.664;-63.766;2023-08-21T09:37:53;1.52;;;1.30;;
59974;SDS011;62136;-35.664;-63.766;2023-08-21T09:40:20;0.47;;;0.40;;
59974;SDS011;62136;-35.664;-63.766;2023-08-21T09:42:54;0.50;;;0.50;;
59974;SDS011;62136;-35.664;-63.766;2023-08-21T09:47:49;0.50;;;0.50;;
59974;SDS011;62136;-35.664;-63.766;2023-08-21T09:50:19;0.50;;;0.50;;
59974;SDS011;62136;-35.664;-63.766;2023-08-21T09:52:47;0.55;;;0.55;;
59974;SDS011;62136;-35.664;-63.766;2023-08-21T09:55:16;0.52;;;0.52;;
59974;SDS011;62136;-35.664;-63.766;2023-08-21T09:57:44;0.73;;;0.60;;
59974;SDS011;62136;-35.664;-63.766;2023-08-21T10:00:12;0.90;;;0.60;;
59974;SDS011;62136;-35.664;-63.766;2023-08-21T10:02:51;0.82;;;0.68;;
59974;SDS011;62136;-35.664;-63.766;2023-08-21T10:05:19;0.60;;;0.60;;
59974;SDS011;62136;-35.664;-63.766;2023-08-21T10:07:47;0.57;;;0.57;;
59974;SDS011;62136;-35.664;-63.766;2023-08-21T10:10:19;0.50;;;0.47;;
59974;SDS011;62136;-35.664;-63.766;2023-08-21T10:12:46;0.50;;;0.50;;
59974;SDS011;62136;-35.664;-63.766;2023-08-21T10:15:16;0.43;;;0.43;;
59974;SDS011;62136;-35.664;-63.766;2023-08-21T10:17:43;0.60;;;0.50;;
59974;SDS011;62136;-35.664;-63.766;2023-08-21T10:20:10;0.70;;;0.55;;
59974;SDS011;62136;-35.664;-63.766;2023-08-21T10:22:44;0.57;;;0.57;;
59974;SDS011;62136;-35.664;-63.766;2023-08-21T10:27:55;0.77;;;0.45;;
59974;SDS011;62136;-35.664;-63.766;2023-08-21T10:30:23;0.57;;;0.50;;
59974;SDS011;62136;-35.664;-63.766;2023-08-21T10:32:52;0.82;;;0.60;;
59974;SDS011;62136;-35.664;-63.766;2023-08-21T10:35:21;0.77;;;0.57;;
59974;SDS011;62136;-35.664;-63.766;2023-08-21T10:38:06;0.50;;;0.50;;
59974;SDS011;62136;-35.664;-63.766;2023-08-21T10:43:44;0.90;;;0.60;;
59974;SDS011;62136;-35.664;-63.766;2023-08-21T10:46:12;0.50;;;0.50;;
59974;SDS011;62136;-35.664;-63.766;2023-08-21T10:48:41;0.50;;;0.50;;
59974;SDS011;62136;-35.664;-63.766;2023-08-21T10:51:09;0.50;;;0.50;;
59974;SDS011;62136;-35.664;-63.766;2023-08-21T10:53:38;0.50;;;0.43;;
59974;SDS011;62136;-35.664;-63.766;2023-08-21T10:56:06;0.82;;;0.60;;
59974;SDS011;62136;-35.664;-63.766;2023-08-21T10:58:43;0.68;;;0.60;;
59974;SDS011;62136;-35.664;-63.766;2023-08-21T11:01:16;1.23;;;0.50;;
59974;SDS011;62136;-35.664;-63.766;2023-08-21T11:03:46;0.82;;;0.60;;
59974;SDS011;62136;-35.664;-63.766;2023-08-21T11:06:18;0.60;;;0.47;;
59974;SDS011;62136;-35.664;-63.766;2023-08-21T11:08:45;0.60;;;0.60;;
59974;SDS011;62136;-35.664;-63.766;2023-08-21T11:11:13;0.60;;;0.60;;
59974;SDS011;62136;-35.664;-63.766;2023-08-21T11:13:48;0.57;;;0.57;;
59974;SDS011;62136;-35.664;-63.766;2023-08-21T11:16:20;0.60;;;0.60;;
59974;SDS011;62136;-35.664;-63.766;2023-08-21T11:18:47;0.77;;;0.63;;
59974;SDS011;62136;-35.664;-63.766;2023-08-21T11:21:14;0.52;;;0.52;;
59974;SDS011;62136;-35.664;-63.766;2023-08-21T11:23:41;0.50;;;0.50;;
59974;SDS011;62136;-35.664;-63.766;2023-08-21T11:26:11;0.63;;;0.60;;
59974;SDS011;62136;-35.664;-63.766;2023-08-21T11:28:38;1.33;;;0.60;;
59974;SDS011;62136;-35.664;-63.766;2023-08-21T11:31:06;1.73;;;0.60;;
59974;SDS011;62136;-35.664;-63.766;2023-08-21T11:33:34;0.60;;;0.50;;
59974;SDS011;62136;-35.664;-63.766;2023-08-21T11:36:04;0.50;;;0.50;;
59974;SDS011;62136;-35.664;-63.766;2023-08-21T11:38:31;0.50;;;0.50;;
59974;SDS011;62136;-35.664;-63.766;2023-08-21T11:41:00;0.60;;;0.60;;
59974;SDS011;62136;-35.664;-63.766;2023-08-21T11:43:37;1.05;;;0.70;;
59974;SDS011;62136;-35.664;-63.766;2023-08-21T11:46:06;0.85;;;0.60;;
59974;SDS011;62136;-35.664;-63.766;2023-08-21T11:48:38;0.60;;;0.60;;
59974;SDS011;62136;-35.664;-63.766;2023-08-21T11:51:07;0.85;;;0.70;;
59974;SDS011;62136;-35.664;-63.766;2023-08-21T11:53:35;0.52;;;0.52;;
59974;SDS011;62136;-35.664;-63.766;2023-08-21T11:56:14;0.65;;;0.65;;
59974;SDS011;62136;-35.664;-63.766;2023-08-21T11:58:43;1.40;;;0.52;;
59974;SDS011;62136;-35.664;-63.766;2023-08-21T12:01:15;0.52;;;0.52;;
59974;SDS011;62136;-35.664;-63.766;2023-08-21T12:03:43;0.57;;;0.57;;
59974;SDS011;62136;-35.664;-63.766;2023-08-21T12:06:11;0.70;;;0.50;;
59974;SDS011;62136;-35.664;-63.766;2023-08-21T12:08:39;0.65;;;0.57;;
59974;SDS011;62136;-35.664;-63.766;2023-08-21T12:11:06;0.40;;;0.40;;
59974;SDS011;62136;-35.664;-63.766;2023-08-21T12:13:33;0.77;;;0.60;;
59974;SDS011;62136;-35.664;-63.766;2023-08-21T12:16:00;0.70;;;0.52;;
59974;SDS011;62136;-35.664;-63.766;2023-08-21T12:18:27;0.70;;;0.70;;
59974;SDS011;62136;-35.664;-63.766;2023-08-21T12:20:55;0.70;;;0.70;;
59974;SDS011;62136;-35.664;-63.766;2023-08-21T12:23:22;0.98;;;0.40;;
59974;SDS011;62136;-35.664;-63.766;2023-08-21T12:25:49;0.77;;;0.60;;
59974;SDS011;62136;-35.664;-63.766;2023-08-21T12:28:16;0.73;;;0.50;;
59974;SDS011;62136;-35.664;-63.766;2023-08-21T12:30:43;1.00;;;0.60;;
59974;SDS011;62136;-35.664;-63.766;2023-08-21T12:33:12;0.60;;;0.60;;
59974;SDS011;62136;-35.664;-63.766;2023-08-21T12:35:39;0.70;;;0.50;;
59974;SDS011;62136;-35.664;-63.766;2023-08-21T12:38:10;0.77;;;0.50;;
59974;SDS011;62136;-35.664;-63.766;2023-08-21T12:40:38;0.82;;;0.70;;
59974;SDS011;62136;-35.664;-63.766;2023-08-21T12:43:05;0.70;;;0.57;;
59974;SDS011;62136;-35.664;-63.766;2023-08-21T12:45:34;0.60;;;0.60;;
59974;SDS011;62136;-35.664;-63.766;2023-08-21T12:48:01;0.95;;;0.70;;
59974;SDS011;62136;-35.664;-63.766;2023-08-21T12:50:29;0.75;;;0.73;;
59974;SDS011;62136;-35.664;-63.766;2023-08-21T12:52:56;0.50;;;0.50;;
59974;SDS011;62136;-35.664;-63.766;2023-08-21T12:55:23;0.50;;;0.50;;
59974;SDS011;62136;-35.664;-63.766;2023-08-21T12:57:50;1.00;;;0.90;;
59974;SDS011;62136;-35.664;-63.766;2023-08-21T13:00:17;0.55;;;0.55;;
59974;SDS011;62136;-35.664;-63.766;2023-08-21T13:02:45;0.60;;;0.60;;
59974;SDS011;62136;-35.664;-63.766;2023-08-21T13:05:12;0.68;;;0.63;;
59974;SDS011;62136;-35.664;-63.766;2023-08-21T13:07:39;0.98;;;0.80;;
59974;SDS011;62136;-35.664;-63.766;2023-08-21T13:10:07;0.70;;;0.50;;
59974;SDS011;62136;-35.664;-63.766;2023-08-21T13:12:34;0.50;;;0.50;;
59974;SDS011;62136;-35.664;-63.766;2023-08-21T13:15:02;0.60;;;0.60;;
59974;SDS011;62136;-35.664;-63.766;2023-08-21T13:17:30;0.85;;;0.70;;
59974;SDS011;62136;-35.664;-63.766;2023-08-21T13:19:57;0.60;;;0.60;;
59974;SDS011;62136;-35.664;-63.766;2023-08-21T13:22:24;0.63;;;0.60;;
59974;SDS011;62136;-35.664;-63.766;2023-08-21T13:24:51;1.08;;;0.52;;
59974;SDS011;62136;-35.664;-63.766;2023-08-21T13:27:18;0.70;;;0.70;;
59974;SDS011;62136;-35.664;-63.766;2023-08-21T13:29:45;2.78;;;0.77;;
59974;SDS011;62136;-35.664;-63.766;2023-08-21T13:32:12;0.70;;;0.60;;
59974;SDS011;62136;-35.664;-63.766;2023-08-21T13:34:40;0.60;;;0.60;;
59974;SDS011;62136;-35.664;-63.766;2023-08-21T13:37:07;0.60;;;0.60;;
59974;SDS011;62136;-35.664;-63.766;2023-08-21T13:39:34;0.50;;;0.50;;
59974;SDS011;62136;-35.664;-63.766;2023-08-21T13:42:01;0.85;;;0.50;;
59974;SDS011;62136;-35.664;-63.766;2023-08-21T13:44:28;0.60;;;0.60;;
59974;SDS011;62136;-35.664;-63.766;2023-08-21T13:46:55;0.50;;;0.50;;
59974;SDS011;62136;-35.664;-63.766;2023-08-21T13:49:22;1.00;;;0.70;;
59974;SDS011;62136;-35.664;-63.766;2023-08-21T13:51:49;0.77;;;0.52;;
59974;SDS011;62136;-35.664;-63.766;2023-08-21T13:54:16;0.50;;;0.50;;
59974;SDS011;62136;-35.664;-63.766;2023-08-21T13:56:43;0.68;;;0.68;;
59974;SDS011;62136;-35.664;-63.766;2023-08-21T13:59:10;0.70;;;0.60;;
59974;SDS011;62136;-35.664;-63.766;2023-08-21T14:01:37;1.35;;;0.60;;
59974;SDS011;62136;-35.664;-63.766;2023-08-21T14:04:04;1.30;;;0.70;;
59974;SDS011;62136;-35.664;-63.766;2023-08-21T14:06:31;0.50;;;0.50;;
59974;SDS011;62136;-35.664;-63.766;2023-08-21T14:08:59;0.70;;;0.70;;
59974;SDS011;62136;-35.664;-63.766;2023-08-21T14:11:26;0.80;;;0.63;;
59974;SDS011;62136;-35.664;-63.766;2023-08-21T14:13:52;0.60;;;0.60;;
59974;SDS011;62136;-35.664;-63.766;2023-08-21T14:16:20;0.70;;;0.60;;
59974;SDS011;62136;-35.664;-63.766;2023-08-21T14:18:47;0.60;;;0.60;;
59974;SDS011;62136;-35.664;-63.766;2023-08-21T14:21:14;0.80;;;0.63;;
59974;SDS011;62136;-35.664;-63.766;2023-08-21T14:23:41;0.95;;;0.70;;
59974;SDS011;62136;-35.664;-63.766;2023-08-21T14:26:08;2.00;;;0.73;;
59974;SDS011;62136;-35.664;-63.766;2023-08-21T14:28:35;1.08;;;0.60;;
59974;SDS011;62136;-35.664;-63.766;2023-08-21T14:31:02;1.85;;;0.70;;
59974;SDS011;62136;-35.664;-63.766;2023-08-21T14:33:29;1.15;;;0.60;;